Ampthill, Virginia
Current Conditions -  °F | °C
As of 7:54 AM on Tuesday 21 Oct 2014 (Local Time) from KRIC Reporting Station
Scattered Clouds Scattered Clouds  
Wind Chill: 52°   Ceiling: Unl
Heat Index: 52°   Visibility: 10mi
Dew Point: 47°   Wind: 3mph
Humidity: 83%   Direction: 190°S
Pressure: 29.89"   Gusts: NA
Location:  37.4513°N, 77.4708°W
Report Text: KRIC 211154Z 19003KT 10SM SCT110 SCT250 11/08 A2989 RMK AO2 SLP126 T01110083 10144 20111 53003
Loading
Personal Weather Stations






























Interactive Weather Map New forecast layout! Learn more

10-Day Weather Forecast

Advertisements
Track Severe Weather on mobile